createdAt,value
2022-12-12T00:00:24.143Z,84.10
2022-12-12T00:02:53.052Z,84.43
2022-12-12T00:05:22.019Z,84.63
2022-12-12T00:07:51.038Z,84.14
2022-12-12T00:10:22.123Z,84.80
2022-12-12T00:12:50.892Z,84.65
2022-12-12T00:15:19.667Z,84.52
2022-12-12T00:17:48.449Z,84.91
2022-12-12T00:20:17.356Z,84.74
2022-12-12T00:22:46.050Z,84.70
2022-12-12T00:25:15.267Z,84.49
2022-12-12T00:27:46.129Z,84.94
2022-12-12T00:30:15.407Z,84.96
2022-12-12T00:32:44.150Z,84.50
2022-12-12T00:35:13.296Z,85.10
2022-12-12T00:37:42.243Z,84.92
2022-12-12T00:40:13.705Z,84.63
2022-12-12T00:42:42.376Z,84.37
2022-12-12T00:45:13.715Z,84.28
2022-12-12T00:47:42.618Z,84.63
2022-12-12T00:50:11.992Z,84.98
2022-12-12T00:52:40.799Z,84.79
2022-12-12T00:55:13.323Z,84.64
2022-12-12T00:57:42.158Z,84.57
2022-12-12T01:00:17.125Z,84.98
2022-12-12T01:02:45.970Z,84.31
2022-12-12T01:05:15.730Z,85.01
2022-12-12T01:07:45.124Z,85.10
2022-12-12T01:10:14.016Z,85.21
2022-12-12T01:12:43.060Z,84.95
2022-12-12T01:15:14.832Z,84.80
2022-12-12T01:17:43.762Z,84.94
2022-12-12T01:20:20.265Z,85.17
2022-12-12T01:22:49.049Z,85.23
2022-12-12T01:25:19.660Z,85.32
2022-12-12T01:27:48.907Z,85.67
2022-12-12T01:30:23.483Z,84.97
2022-12-12T01:32:52.475Z,84.47
2022-12-12T01:35:21.424Z,84.83
2022-12-12T01:37:50.332Z,84.75
2022-12-12T01:40:24.585Z,84.45
2022-12-12T01:42:54.455Z,84.03
2022-12-12T01:46:19.603Z,84.78
2022-12-12T01:48:53.054Z,84.88
2022-12-12T01:51:25.928Z,84.42
2022-12-12T01:54:01.332Z,85.11
2022-12-12T01:56:30.438Z,84.82
2022-12-12T01:59:01.275Z,84.78
2022-12-12T02:01:32.903Z,85.51
2022-12-12T02:04:03.584Z,84.31
2022-12-12T02:06:33.062Z,84.60
2022-12-12T02:09:06.526Z,84.92
2022-12-12T02:11:43.048Z,84.76
2022-12-12T02:14:12.671Z,84.31
2022-12-12T02:17:20.412Z,84.46
2022-12-12T02:20:45.002Z,84.96
2022-12-12T02:23:58.410Z,85.04
2022-12-12T02:27:05.482Z,85.10
2022-12-12T02:30:07.218Z,84.71
2022-12-12T02:32:59.701Z,84.65
2022-12-12T02:35:37.280Z,85.14
2022-12-12T02:38:17.263Z,84.94
2022-12-12T02:40:55.903Z,85.13
2022-12-12T02:43:36.293Z,85.42
2022-12-12T02:46:09.865Z,85.48
2022-12-12T02:48:47.630Z,85.98
2022-12-12T02:51:18.659Z,86.15
2022-12-12T02:53:47.358Z,85.96
2022-12-12T02:56:51.275Z,85.93
2022-12-12T02:59:26.316Z,86.22
2022-12-12T03:02:44.566Z,86.65
2022-12-12T03:05:49.389Z,86.62
2022-12-12T03:08:35.754Z,86.30
2022-12-12T03:11:10.169Z,85.84
2022-12-12T03:13:48.909Z,85.89
2022-12-12T03:16:29.017Z,85.93
2022-12-12T03:19:07.150Z,86.27
2022-12-12T03:21:45.999Z,85.58
2022-12-12T03:24:27.008Z,86.12
2022-12-12T03:27:01.884Z,86.48
2022-12-12T03:29:35.951Z,86.06
2022-12-12T03:32:10.571Z,86.57
2022-12-12T03:34:44.642Z,86.18
2022-12-12T03:37:21.572Z,86.79
2022-12-12T03:39:54.783Z,86.30
2022-12-12T03:42:30.295Z,86.77
2022-12-12T03:45:07.551Z,86.82
2022-12-12T03:47:42.188Z,86.97
2022-12-12T03:50:19.220Z,86.50
2022-12-12T03:52:56.202Z,86.60
2022-12-12T03:55:32.108Z,87.07
2022-12-12T03:58:07.614Z,86.88
2022-12-12T04:00:38.367Z,87.38
2022-12-12T04:03:16.060Z,86.79
2022-12-12T04:06:12.695Z,87.04
2022-12-12T04:09:03.820Z,86.99
2022-12-12T04:11:57.524Z,87.70
2022-12-12T04:14:45.355Z,87.03
2022-12-12T04:17:19.527Z,88.32
2022-12-12T04:20:21.967Z,87.13
2022-12-12T04:23:17.558Z,87.59
2022-12-12T04:26:14.903Z,87.33
2022-12-12T04:28:52.096Z,87.71
2022-12-12T04:31:25.519Z,87.10
2022-12-12T04:34:02.475Z,86.57
2022-12-12T04:36:33.555Z,87.24
2022-12-12T04:39:03.991Z,87.17
2022-12-12T04:41:38.748Z,87.27
2022-12-12T04:44:11.431Z,87.53
2022-12-12T04:46:42.536Z,87.15
2022-12-12T04:49:19.253Z,87.12
2022-12-12T04:51:52.931Z,87.80
2022-12-12T04:54:28.345Z,87.37
2022-12-12T04:57:03.041Z,86.99
2022-12-12T04:59:32.384Z,87.42
2022-12-12T05:02:08.847Z,87.14
2022-12-12T05:04:48.654Z,87.15
2022-12-12T05:07:24.393Z,87.97
2022-12-12T05:09:53.196Z,87.33
2022-12-12T05:12:23.942Z,88.06
2022-12-12T05:14:52.801Z,87.52
2022-12-12T05:17:32.183Z,87.18
2022-12-12T05:20:01.132Z,87.34
2022-12-12T05:22:29.810Z,87.04
2022-12-12T05:24:58.552Z,87.75
2022-12-12T05:27:29.221Z,87.68
2022-12-12T05:29:57.999Z,87.79
2022-12-12T05:32:26.744Z,87.42
2022-12-12T05:34:55.501Z,87.73
2022-12-12T05:37:24.332Z,87.83
2022-12-12T05:39:53.168Z,88.01
2022-12-12T05:42:21.915Z,87.57
2022-12-12T05:44:52.605Z,87.58
2022-12-12T05:47:21.335Z,87.81
2022-12-12T05:49:50.110Z,88.29
2022-12-12T05:52:18.911Z,87.65
2022-12-12T05:54:48.053Z,87.16
2022-12-12T05:57:16.775Z,87.63
2022-12-12T05:59:45.411Z,87.90
2022-12-12T06:02:17.197Z,87.39
2022-12-12T06:04:45.778Z,87.34
2022-12-12T06:07:14.507Z,87.42
2022-12-12T06:09:43.217Z,87.18
2022-12-12T06:12:11.926Z,87.85
2022-12-12T06:14:40.661Z,87.45
2022-12-12T06:17:09.436Z,88.28
2022-12-12T06:19:40.115Z,88.01
2022-12-12T06:22:09.249Z,88.14
2022-12-12T06:24:37.930Z,88.37
2022-12-12T06:27:06.792Z,88.62
2022-12-12T06:29:35.657Z,88.14
2022-12-12T06:32:04.496Z,88.29
2022-12-12T06:34:33.351Z,88.39
2022-12-12T06:37:04.530Z,88.41
2022-12-12T06:39:33.259Z,88.42
2022-12-12T06:42:02.270Z,88.01
2022-12-12T06:44:31.084Z,88.18
2022-12-12T06:46:59.908Z,88.43
2022-12-12T06:49:28.716Z,87.87
2022-12-12T06:51:57.437Z,88.12
2022-12-12T06:54:28.163Z,87.85
2022-12-12T06:56:57.164Z,87.87
2022-12-12T06:59:29.708Z,88.17
2022-12-12T07:01:58.857Z,87.30
2022-12-12T07:04:27.698Z,87.42
2022-12-12T07:06:57.568Z,87.74
2022-12-12T07:09:28.305Z,87.75
2022-12-12T07:12:00.222Z,87.31
2022-12-12T07:14:28.967Z,87.90
2022-12-12T07:16:57.744Z,87.48
2022-12-12T07:19:26.518Z,87.67
2022-12-12T07:21:55.309Z,87.28
2022-12-12T07:24:24.023Z,87.46
2022-12-12T07:26:54.687Z,87.20
2022-12-12T07:29:23.506Z,87.51
2022-12-12T07:31:52.309Z,87.16
2022-12-12T07:34:24.432Z,87.22
2022-12-12T07:36:56.542Z,88.06
2022-12-12T07:39:31.599Z,87.48
2022-12-12T07:42:02.319Z,87.84
2022-12-12T07:44:31.009Z,88.20
2022-12-12T07:47:00.402Z,87.91
2022-12-12T07:49:31.244Z,88.26
2022-12-12T07:51:59.991Z,88.11
2022-12-12T07:54:28.755Z,88.61
2022-12-12T07:56:57.531Z,88.14
2022-12-12T07:59:28.245Z,88.29
2022-12-12T08:01:57.262Z,88.81
2022-12-12T08:04:26.161Z,88.23
2022-12-12T08:07:02.765Z,89.15
2022-12-12T08:09:34.384Z,88.83
2022-12-12T08:12:03.110Z,89.45
2022-12-12T08:14:33.920Z,88.62
2022-12-12T08:17:02.713Z,89.79
2022-12-12T08:19:31.516Z,89.15
2022-12-12T08:22:00.352Z,89.50
2022-12-12T08:24:29.498Z,89.81
2022-12-12T08:26:58.296Z,90.01
2022-12-12T08:29:27.077Z,90.30
2022-12-12T08:31:57.984Z,90.71
2022-12-12T08:34:27.291Z,90.32
2022-12-12T08:36:56.129Z,91.31
2022-12-12T08:39:25.073Z,91.01
2022-12-12T08:41:54.024Z,90.61
2022-12-12T08:44:23.702Z,90.65
2022-12-12T08:46:52.647Z,90.86
2022-12-12T08:49:23.515Z,91.75
2022-12-12T08:51:52.309Z,91.43
2022-12-12T08:54:21.107Z,90.45
2022-12-12T08:59:22.705Z,90.65
2022-12-12T09:01:51.618Z,89.33
2022-12-12T09:04:20.527Z,88.90
2022-12-12T09:06:49.641Z,88.71
2022-12-12T09:09:18.317Z,89.00
2022-12-12T09:11:47.051Z,88.31
2022-12-12T09:14:15.776Z,88.05
2022-12-12T09:16:46.411Z,88.07
2022-12-12T09:19:15.163Z,88.25
2022-12-12T09:21:44.055Z,86.69
2022-12-12T09:24:12.771Z,86.43
2022-12-12T09:26:41.615Z,86.06
2022-12-12T09:29:12.283Z,83.90
2022-12-12T09:31:41.333Z,83.43
2022-12-12T09:34:12.044Z,84.82
2022-12-12T09:36:40.825Z,82.73
2022-12-12T09:39:09.568Z,82.40
2022-12-12T09:41:38.647Z,81.53
2022-12-12T09:44:11.387Z,79.95
2022-12-12T09:46:45.659Z,78.39
2022-12-12T09:49:29.023Z,76.70
2022-12-12T09:52:00.481Z,77.95
2022-12-12T09:54:30.016Z,75.96
2022-12-12T09:57:14.983Z,75.03
2022-12-12T09:59:49.471Z,73.74
2022-12-12T10:03:18.293Z,68.67
2022-12-12T10:06:20.684Z,71.93
2022-12-12T10:09:03.079Z,71.91
2022-12-12T10:11:49.742Z,71.07
2022-12-12T10:14:22.573Z,70.87
2022-12-12T10:16:57.395Z,69.57
2022-12-12T10:19:31.752Z,68.65
2022-12-12T10:22:10.367Z,67.94
2022-12-12T10:24:45.966Z,66.80
2022-12-12T10:27:16.040Z,66.72
2022-12-12T10:29:49.879Z,66.18
2022-12-12T10:32:37.211Z,64.74
2022-12-12T10:35:26.494Z,64.59
2022-12-12T10:38:13.167Z,64.25
2022-12-12T10:40:54.599Z,63.06
2022-12-12T10:43:28.767Z,64.22
2022-12-12T10:46:18.988Z,62.41
2022-12-12T10:48:50.103Z,63.94
2022-12-12T10:51:22.783Z,62.31
2022-12-12T10:53:53.765Z,62.55
2022-12-12T10:56:25.169Z,62.17
2022-12-12T10:58:56.334Z,62.10
2022-12-12T11:02:00.716Z,61.50
2022-12-12T11:04:18.423Z,61.66
2022-12-12T11:06:51.972Z,61.01
2022-12-12T11:09:25.653Z,60.99
2022-12-12T11:12:01.605Z,59.98
2022-12-12T11:14:38.250Z,60.66
2022-12-12T11:17:23.170Z,60.69
2022-12-12T11:19:56.417Z,60.99
2022-12-12T11:22:25.792Z,60.64
2022-12-12T11:24:56.829Z,60.93
2022-12-12T11:27:30.269Z,60.44
2022-12-12T11:30:02.236Z,60.49
2022-12-12T11:32:33.963Z,60.74
2022-12-12T11:35:06.386Z,60.52
2022-12-12T11:37:46.939Z,60.10
2022-12-12T11:40:27.117Z,59.84
2022-12-12T11:43:14.884Z,60.07
2022-12-12T11:45:43.660Z,59.96
2022-12-12T11:48:44.172Z,59.98
2022-12-12T11:51:13.576Z,59.80
2022-12-12T11:53:46.746Z,59.74
2022-12-12T11:56:40.365Z,58.60
2022-12-12T11:59:48.803Z,59.29
2022-12-12T12:03:06.200Z,58.58
2022-12-12T12:05:48.472Z,58.25
2022-12-12T12:08:40.174Z,59.43
2022-12-12T12:11:26.426Z,59.09
2022-12-12T12:14:17.027Z,58.49
2022-12-12T12:16:57.601Z,59.06
2022-12-12T12:19:37.483Z,60.69
2022-12-12T12:22:17.895Z,61.63
2022-12-12T12:25:17.939Z,62.39
2022-12-12T12:28:02.991Z,63.37
2022-12-12T12:30:35.978Z,64.44
2022-12-12T12:33:39.216Z,64.05
2022-12-12T12:36:21.153Z,64.84
2022-12-12T12:39:11.137Z,65.26
2022-12-12T12:41:58.991Z,65.96
2022-12-12T12:44:44.718Z,66.20
2022-12-12T12:47:28.548Z,66.74
2022-12-12T12:50:04.092Z,66.43
2022-12-12T12:52:41.532Z,67.17
2022-12-12T12:55:19.152Z,67.07
2022-12-12T12:57:51.313Z,67.38
2022-12-12T13:00:26.806Z,67.69
2022-12-12T13:03:03.552Z,67.77
2022-12-12T13:05:37.815Z,67.99
2022-12-12T13:08:18.682Z,67.89
2022-12-12T13:10:51.804Z,68.65
2022-12-12T13:13:26.261Z,68.29
2022-12-12T13:16:01.671Z,68.71
2022-12-12T13:18:44.446Z,69.20
2022-12-12T13:21:22.904Z,69.39
2022-12-12T13:24:00.775Z,70.26
2022-12-12T13:26:42.071Z,70.53
2022-12-12T13:29:45.050Z,70.31
2022-12-12T13:32:55.714Z,70.64
2022-12-12T13:35:30.568Z,70.14
2022-12-12T13:38:00.177Z,71.28
2022-12-12T13:40:33.070Z,71.24
2022-12-12T13:43:09.678Z,71.48
2022-12-12T13:45:45.745Z,71.28
2022-12-12T13:48:46.786Z,71.46
2022-12-12T13:51:40.137Z,71.51
2022-12-12T13:54:45.601Z,70.89
2022-12-12T13:57:23.903Z,70.95
2022-12-12T14:00:20.576Z,71.60
2022-12-12T14:03:07.632Z,71.74
2022-12-12T14:05:42.027Z,71.72
2022-12-12T14:08:25.513Z,71.77
2022-12-12T14:11:02.068Z,71.90
2022-12-12T14:13:42.251Z,71.67
2022-12-12T14:16:26.789Z,71.83
2022-12-12T14:19:04.983Z,71.95
2022-12-12T14:21:46.470Z,72.41
2022-12-12T14:25:02.984Z,72.22
2022-12-12T14:28:15.115Z,72.40
2022-12-12T14:31:03.398Z,72.82
2022-12-12T14:34:18.355Z,72.91
2022-12-12T14:37:23.496Z,72.31
2022-12-12T14:40:14.049Z,72.78
2022-12-12T14:43:16.432Z,72.21
2022-12-12T14:45:57.700Z,73.17
2022-12-12T14:48:32.139Z,72.69
2022-12-12T14:53:33.480Z,72.82
2022-12-12T14:56:08.944Z,72.94
2022-12-12T14:58:42.046Z,73.16
2022-12-12T15:01:11.229Z,72.82
2022-12-12T15:03:44.884Z,73.45
2022-12-12T15:06:39.325Z,73.76
2022-12-12T15:09:26.628Z,73.67
2022-12-12T15:11:58.276Z,73.94
2022-12-12T15:14:29.315Z,74.53
2022-12-12T15:17:04.360Z,74.64
2022-12-12T15:19:38.451Z,74.56
2022-12-12T15:22:13.262Z,74.24
2022-12-12T15:24:43.887Z,74.65
2022-12-12T15:27:21.251Z,74.11
2022-12-12T15:29:50.416Z,74.50
2022-12-12T15:32:22.456Z,74.82
2022-12-12T15:35:05.504Z,74.84
2022-12-12T15:37:35.833Z,75.38
2022-12-12T15:40:26.316Z,74.88
2022-12-12T15:42:59.893Z,75.34
2022-12-12T15:45:35.174Z,75.01
2022-12-12T15:48:08.553Z,75.67
